Time;durP1;ratioP1;P1;durP2;ratioP2;P2;SDS_P1;SDS_P2;PMS_P1;PMS_P2;Temp;Humidity;BMP_temperature;BMP_pressure;BME280_temperature;BME280_humidity;BME280_pressure;Samples;Min_cycle;Max_cycle;Signal;HPM_P1;HPM_P2
2023/04/03 00:00:41;;;;;;;;;;;;;;;;;;4885704;29;19933;-95
2023/04/03 00:03:07;;;;;;;;;;;;;;;;;;4885578;29;20383;-95
2023/04/03 00:05:33;;;;;;;;;;;;;;;;;;4885837;29;19934;-95
2023/04/03 00:07:58;;;;;;;;;;;;;;;;;;4885280;29;20022;-95
2023/04/03 00:10:25;;;;;;;;;;;;;;;;;;4885487;29;20245;-95
2023/04/03 00:12:51;;;;;;;;;;;;;;;;;;4901378;29;20375;-95
2023/04/03 00:15:17;;;;;;;;;;;;;;;;;;4884715;29;20044;-94
2023/04/03 00:17:42;;;;;;;;;;;;;;;;;;4885365;29;19923;-94
2023/04/03 00:20:09;;;;;;;;;;;;;;;;;;4885765;29;19980;-94
2023/04/03 00:22:35;;;;;;;;;;;;;;;;;;4884901;29;19991;-93
2023/04/03 00:25:01;;;;;;;;;;;;;;;;;;4885235;29;19938;-94
2023/04/03 00:27:27;;;;;;;;;;;;;;;;;;4888549;29;19923;-94
2023/04/03 00:29:52;;;;;;;;;;;;;;;;;;4888923;29;19938;-94
2023/04/03 00:32:18;;;;;;;;;;;;;;;;;;4888838;29;20379;-94
2023/04/03 00:34:45;;;;;;;;;;;;;;;;;;4888617;29;19938;-95
2023/04/03 00:37:11;;;;;;;;;;;;;;;;;;4888687;29;19950;-94
2023/04/03 00:39:36;;;;;;;;;;;;;;;;;;4888474;29;20371;-95
2023/04/03 00:42:02;;;;;;;;;;;;;;;;;;4888612;29;20022;-95
2023/04/03 00:44:28;;;;;;;;;;;;;;;;;;4888821;29;19927;-94
2023/04/03 00:46:54;;;;;;;;;;;;;;;;;;4888971;29;20265;-95
2023/04/03 00:49:20;;;;;;;;;;;;;;;;;;4888648;29;19927;-94
2023/04/03 00:51:46;;;;;;;;;;;;;;;;;;4888563;29;19923;-94
2023/04/03 00:54:12;;;;;;;;;;;;;;;;;;4888321;29;20232;-94
2023/04/03 00:56:38;;;;;;;;;;;;;;;;;;4888169;29;19994;-94
2023/04/03 00:59:04;;;;;;;;;;;;;;;;;;4888621;29;20359;-93
2023/04/03 01:01:31;;;;;;;;;;;;;;;;;;4888504;29;19931;-95
2023/04/03 01:03:57;;;;;;;;;;;;;;;;;;4888758;29;19957;-94
2023/04/03 01:06:23;;;;;;;;;;;;;;;;;;4888736;29;20022;-94
2023/04/03 01:08:49;;;;;;;;;;;;;;;;;;4887976;29;19923;-94
2023/04/03 01:11:15;;;;;;;;;;;;;;;;;;4887791;29;19930;-93
2023/04/03 01:13:41;;;;;;;;;;;;;;;;;;4888431;29;19923;-94
2023/04/03 01:16:07;;;;;;;;;;;;;;;;;;4887968;29;19939;-93
2023/04/03 01:18:33;;;;;;;;;;;;;;;;;;4887555;29;19923;-92
2023/04/03 01:20:59;;;;;;;;;;;;;;;;;;4887226;29;20392;-92
2023/04/03 01:23:26;;;;;;;;;;;;;;;;;;4902498;29;20017;-91
2023/04/03 01:25:55;;;;;;;;;;;;;;;;;;4902752;29;19927;-93
2023/04/03 01:28:21;;;;;;;;;;;;;;;;;;4887273;29;19923;-93
2023/04/03 01:30:47;;;;;;;;;;;;;;;;;;4887338;29;20017;-93
2023/04/03 01:33:14;;;;;;;;;;;;;;;;;;4903206;29;19923;-91
2023/04/03 01:35:40;;;;;;;;;;;;;;;;;;4886961;29;20351;-91
2023/04/03 01:38:06;;;;;;;;;;;;;;;;;;4902091;29;19974;-91
2023/04/03 01:40:32;;;;;;;;;;;;;;;;;;4886965;29;19927;-92
2023/04/03 01:42:58;;;;;;;;;;;;;;;;;;4887080;29;20394;-92
2023/04/03 01:45:25;;;;;;;;;;;;;;;;;;4886542;29;19934;-92
2023/04/03 01:47:51;;;;;;;;;;;;;;;;;;4886818;29;19927;-93
2023/04/03 01:50:17;;;;;;;;;;;;;;;;;;4887529;29;19930;-92
2023/04/03 01:52:43;;;;;;;;;;;;;;;;;;4887307;29;19995;-93
2023/04/03 01:55:09;;;;;;;;;;;;;;;;;;4887400;29;19930;-93
2023/04/03 01:57:35;;;;;;;;;;;;;;;;;;4887236;29;19923;-93
2023/04/03 02:00:01;;;;;;;;;;;;;;;;;;4887497;29;19931;-94
2023/04/03 02:02:27;;;;;;;;;;;;;;;;;;4887471;29;20372;-94
2023/04/03 02:04:54;;;;;;;;;;;;;;;;;;4887086;29;19927;-95
2023/04/03 02:07:20;;;;;;;;;;;;;;;;;;4887084;29;19973;-93
2023/04/03 02:09:46;;;;;;;;;;;;;;;;;;4887073;29;19923;-94
2023/04/03 02:12:12;;;;;;;;;;;;;;;;;;4887642;29;20335;-95
2023/04/03 02:14:38;;;;;;;;;;;;;;;;;;4886715;29;19930;-92
2023/04/03 02:17:08;;;;;;;;;;;;;;;;;;4886856;29;20356;-94
2023/04/03 02:19:34;;;;;;;;;;;;;;;;;;4887123;29;19927;-93
2023/04/03 02:22:00;;;;;;;;;;;;;;;;;;4886875;29;19974;-94
2023/04/03 02:24:26;;;;;;;;;;;;;;;;;;4886822;29;19934;-95
2023/04/03 02:26:52;;;;;;;;;;;;;;;;;;4887057;29;20382;-93
2023/04/03 02:29:18;;;;;;;;;;;;;;;;;;4887077;29;19923;-95
2023/04/03 02:31:44;;;;;;;;;;;;;;;;;;4887254;29;19923;-96
2023/04/03 02:34:10;;;;;;;;;;;;;;;;;;4886693;29;19923;-95
2023/04/03 02:36:36;;;;;;;;;;;;;;;;;;4886384;29;20013;-93
2023/04/03 02:39:02;;;;;;;;;;;;;;;;;;4886340;29;19978;-93
2023/04/03 02:41:34;;;;;;;;;;;;;;;;;;4886259;29;20022;-91
2023/04/03 02:44:00;;;;;;;;;;;;;;;;;;4886821;29;19923;-92
2023/04/03 02:46:26;;;;;;;;;;;;;;;;;;4886408;29;19927;-93
2023/04/03 02:48:52;;;;;;;;;;;;;;;;;;4886156;29;19923;-93
2023/04/03 02:51:18;;;;;;;;;;;;;;;;;;4886339;29;19923;-93
2023/04/03 02:53:44;;;;;;;;;;;;;;;;;;4902395;29;20017;-92
2023/04/03 02:56:10;;;;;;;;;;;;;;;;;;4886023;29;19923;-92
2023/04/03 02:58:36;;;;;;;;;;;;;;;;;;4886460;29;20063;-93
2023/04/03 03:01:02;;;;;;;;;;;;;;;;;;4887235;29;19930;-92
2023/04/03 03:03:28;;;;;;;;;;;;;;;;;;4888682;29;19978;-92
2023/04/03 03:05:54;;;;;;;;;;;;;;;;;;4887055;29;19927;-93
2023/04/03 03:08:20;;;;;;;;;;;;;;;;;;4887219;29;19927;-92
2023/04/03 03:10:58;;;;;;;;;;;;;;;;;;4886858;29;19966;-92
2023/04/03 03:13:28;;;;;;;;;;;;;;;;;;4902531;29;20021;-93
2023/04/03 03:15:54;;;;;;;;;;;;;;;;;;4886589;29;19981;-93
2023/04/03 03:18:20;;;;;;;;;;;;;;;;;;4886445;29;19974;-93
2023/04/03 03:20:46;;;;;;;;;;;;;;;;;;4888060;29;19923;-93
2023/04/03 03:23:12;;;;;;;;;;;;;;;;;;4887447;29;19930;-94
2023/04/03 03:25:37;;;;;;;;;;;;;;;;;;4887208;29;19935;-93
2023/04/03 03:28:03;;;;;;;;;;;;;;;;;;4887106;29;19923;-93
2023/04/03 03:30:29;;;;;;;;;;;;;;;;;;4886432;29;19946;-93
2023/04/03 03:32:55;;;;;;;;;;;;;;;;;;4886001;29;19923;-92
2023/04/03 03:35:21;;;;;;;;;;;;;;;;;;4885835;29;19978;-93
2023/04/03 03:37:47;;;;;;;;;;;;;;;;;;4885944;29;20377;-93
2023/04/03 03:40:13;;;;;;;;;;;;;;;;;;4884844;29;19942;-93
2023/04/03 03:42:39;;;;;;;;;;;;;;;;;;4885658;29;19969;-91
2023/04/03 03:45:05;;;;;;;;;;;;;;;;;;4901087;29;19927;-92
2023/04/03 03:47:31;;;;;;;;;;;;;;;;;;4885954;29;19926;-92
2023/04/03 03:49:57;;;;;;;;;;;;;;;;;;4885551;29;20279;-94
2023/04/03 03:52:23;;;;;;;;;;;;;;;;;;4885874;29;19929;-93
2023/04/03 03:54:49;;;;;;;;;;;;;;;;;;4885972;29;19923;-93
2023/04/03 03:57:15;;;;;;;;;;;;;;;;;;4885439;29;19947;-93
2023/04/03 03:59:41;;;;;;;;;;;;;;;;;;4886108;29;19955;-93
2023/04/03 04:02:10;;;;;;;;;;;;;;;;;;4888869;29;19971;-95
2023/04/03 04:04:36;;;;;;;;;;;;;;;;;;4889520;29;19985;-93
2023/04/03 04:07:02;;;;;;;;;;;;;;;;;;4889496;29;20383;-92
2023/04/03 04:09:29;;;;;;;;;;;;;;;;;;4889892;29;19934;-96
2023/04/03 04:12:05;;;;;;;;;;;;;;;;;;4890190;29;19930;-96
2023/04/03 04:14:31;;;;;;;;;;;;;;;;;;4889691;29;19955;-96
2023/04/03 04:16:57;;;;;;;;;;;;;;;;;;4889112;29;19911;-96
2023/04/03 04:19:23;;;;;;;;;;;;;;;;;;4889745;29;19973;-96
2023/04/03 04:21:55;;;;;;;;;;;;;;;;;;4889709;29;19927;-96
2023/04/03 04:24:22;;;;;;;;;;;;;;;;;;4888453;29;19927;-96
2023/04/03 04:26:48;;;;;;;;;;;;;;;;;;4889289;29;19934;-96
2023/04/03 04:29:14;;;;;;;;;;;;;;;;;;4889411;29;20017;-96
2023/04/03 04:31:43;;;;;;;;;;;;;;;;;;4889494;29;20385;-94
2023/04/03 04:34:09;;;;;;;;;;;;;;;;;;4889331;29;19979;-95
2023/04/03 04:36:35;;;;;;;;;;;;;;;;;;4889476;29;19927;-95
2023/04/03 04:39:01;;;;;;;;;;;;;;;;;;4888853;29;19927;-95
2023/04/03 04:41:27;;;;;;;;;;;;;;;;;;4888548;29;19934;-96
2023/04/03 04:43:53;;;;;;;;;;;;;;;;;;4888661;29;19951;-96
2023/04/03 04:46:19;;;;;;;;;;;;;;;;;;4888718;29;20031;-95
2023/04/03 04:48:45;;;;;;;;;;;;;;;;;;4889245;29;19923;-96
2023/04/03 04:51:11;;;;;;;;;;;;;;;;;;4888543;29;19933;-95
2023/04/03 04:53:37;;;;;;;;;;;;;;;;;;4888878;29;19923;-95
2023/04/03 04:56:03;;;;;;;;;;;;;;;;;;4888582;29;20021;-95
2023/04/03 04:58:29;;;;;;;;;;;;;;;;;;4888217;29;19911;-95
2023/04/03 05:00:55;;;;;;;;;;;;;;;;;;4888789;29;19929;-94
2023/04/03 05:03:21;;;;;;;;;;;;;;;;;;4888369;29;20054;-95
2023/04/03 05:05:47;;;;;;;;;;;;;;;;;;4887302;29;19943;-96
2023/04/03 05:08:13;;;;;;;;;;;;;;;;;;4888387;29;19930;-94
2023/04/03 05:10:41;;;;;;;;;;;;;;;;;;4891129;29;19923;-94
2023/04/03 05:13:07;;;;;;;;;;;;;;;;;;4888769;29;20291;-95
2023/04/03 05:15:33;;;;;;;;;;;;;;;;;;4888977;29;19923;-95
2023/04/03 05:17:59;;;;;;;;;;;;;;;;;;4888500;29;19966;-94
2023/04/03 05:20:25;;;;;;;;;;;;;;;;;;4888921;29;19929;-95
2023/04/03 05:22:51;;;;;;;;;;;;;;;;;;4888484;29;19934;-94
2023/04/03 05:25:26;;;;;;;;;;;;;;;;;;4903804;29;20010;-96
2023/04/03 05:28:40;;;;;;;;;;;;;;;;;;4888462;29;19923;-96
2023/04/03 05:34:03;;;;;;;;;;;;;;;;;;4905477;29;20037;-96
2023/04/03 05:36:32;;;;;;;;;;;;;;;;;;4904051;29;19923;-94
2023/04/03 05:38:58;;;;;;;;;;;;;;;;;;4887939;29;20014;-95
2023/04/03 05:41:24;;;;;;;;;;;;;;;;;;4888020;29;20447;-94
2023/04/03 05:43:50;;;;;;;;;;;;;;;;;;4888216;29;20021;-96
2023/04/03 05:46:16;;;;;;;;;;;;;;;;;;4888000;29;19927;-92
2023/04/03 05:48:42;;;;;;;;;;;;;;;;;;4887782;29;19987;-95
2023/04/03 05:51:08;;;;;;;;;;;;;;;;;;4887803;29;19930;-96
2023/04/03 05:53:34;;;;;;;;;;;;;;;;;;4887313;29;19923;-95
2023/04/03 05:56:00;;;;;;;;;;;;;;;;;;4887625;29;19923;-95
2023/04/03 05:58:26;;;;;;;;;;;;;;;;;;4887854;29;20018;-95
2023/04/03 06:00:52;;;;;;;;;;;;;;;;;;4887771;29;19923;-96
2023/04/03 06:03:18;;;;;;;;;;;;;;;;;;4887853;29;19930;-95
2023/04/03 06:05:46;;;;;;;;;;;;;;;;;;4887378;29;20372;-94
2023/04/03 06:08:14;;;;;;;;;;;;;;;;;;4886810;29;19923;-95
2023/04/03 06:10:40;;;;;;;;;;;;;;;;;;4887172;29;20435;-95
2023/04/03 06:13:06;;;;;;;;;;;;;;;;;;4887328;29;19973;-96
2023/04/03 06:15:54;;;;;;;;;;;;;;;;;;;;;
2023/04/03 06:18:33;;;;;;;;;;;;;;;;;;4894613;29;19935;-93
2023/04/03 06:21:03;;;;;;;;;;;;;;;;;;4887273;29;19930;-94
2023/04/03 06:23:29;;;;;;;;;;;;;;;;;;4886449;29;19924;-92
2023/04/03 06:25:55;;;;;;;;;;;;;;;;;;4885881;29;20029;-93
2023/04/03 06:28:21;;;;;;;;;;;;;;;;;;4887042;29;19983;-93
2023/04/03 06:30:47;;;;;;;;;;;;;;;;;;4891807;29;20375;-94
2023/04/03 06:33:13;;;;;;;;;;;;;;;;;;4903872;29;19930;-95
2023/04/03 06:35:39;;;;;;;;;;;;;;;;;;4905560;29;19923;-95
2023/04/03 06:38:09;;;;;;;;;;;;;;;;;;4905710;29;19973;-95
2023/04/03 06:40:35;;;;;;;;;;;;;;;;;;4905387;29;20326;-95
2023/04/03 06:43:01;;;;;;;;;;;;;;;;;;4906027;29;20286;-95
2023/04/03 06:45:29;;;;;;;;;;;;;;;;;;4905363;29;19931;-96
2023/04/03 06:47:55;;;;;;;;;;;;;;;;;;4905144;29;19945;-93
2023/04/03 06:50:24;;;;;;;;;;;;;;;;;;4905537;29;20368;-94
2023/04/03 06:52:50;;;;;;;;;;;;;;;;;;4905541;29;20390;-94
2023/04/03 06:55:16;;;;;;;;;;;;;;;;;;4905051;29;19922;-95
2023/04/03 07:00:18;;;;;;;;;;;;;;;;;;5623779;23;20297;-94
2023/04/03 07:02:44;;;;;;;;;;;;;;;;;;4906144;29;19994;-94
2023/04/03 07:05:13;;;;;;;;;;;;;;;;;;4901459;29;20378;-95
2023/04/03 07:07:39;;;;;;;;;;;;;;;;;;4885805;29;19923;-96
2023/04/03 07:10:08;;;;;;;;;;;;;;;;;;4886793;29;19930;-95
2023/04/03 07:12:34;;;;;;;;;;;;;;;;;;4886611;29;19998;-95
2023/04/03 07:15:00;;;;;;;;;;;;;;;;;;4886072;29;19923;-95
2023/04/03 07:17:28;;;;;;;;;;;;;;;;;;4886238;29;19923;-95
2023/04/03 07:19:55;;;;;;;;;;;;;;;;;;4886676;29;19923;-94
2023/04/03 07:22:21;;;;;;;;;;;;;;;;;;4886131;29;19927;-94
2023/04/03 07:24:49;;;;;;;;;;;;;;;;;;4886384;29;20263;-95
2023/04/03 07:27:18;;;;;;;;;;;;;;;;;;4886356;29;19930;-94
2023/04/03 07:29:44;;;;;;;;;;;;;;;;;;4886130;29;19931;-94
2023/04/03 07:32:10;;;;;;;;;;;;;;;;;;4886009;29;19923;-95
2023/04/03 07:34:36;;;;;;;;;;;;;;;;;;4885195;29;19924;-95
2023/04/03 07:37:02;;;;;;;;;;;;;;;;;;4885692;29;19951;-94
2023/04/03 07:39:28;;;;;;;;;;;;;;;;;;4886332;29;19927;-95
2023/04/03 07:41:55;;;;;;;;;;;;;;;;;;4886757;29;19923;-94
2023/04/03 07:44:21;;;;;;;;;;;;;;;;;;4887135;29;19962;-94
2023/04/03 07:46:48;;;;;;;;;;;;;;;;;;4886062;29;19927;-94
2023/04/03 07:49:14;;;;;;;;;;;;;;;;;;4886175;29;19923;-95
2023/04/03 07:51:43;;;;;;;;;;;;;;;;;;4887968;29;20463;-95
2023/04/03 07:54:11;;;;;;;;;;;;;;;;;;4886272;29;19923;-96
2023/04/03 07:56:48;;;;;;;;;;;;;;;;;;4886549;29;19997;-96
2023/04/03 08:02:31;;;;;;;;;;;;;;;;;;;;;
2023/04/03 08:04:52;;;;;;;;;;;;;;;;;;4896458;29;20022;-96
2023/04/03 08:07:35;;;;;;;;;;;;;;;;;;4901454;29;19930;-96
2023/04/03 08:10:04;;;;;;;;;;;;;;;;;;4885179;29;19981;-96
2023/04/03 08:12:36;;;;;;;;;;;;;;;;;;4886133;29;20013;-95
2023/04/03 08:15:05;;;;;;;;;;;;;;;;;;4885932;29;20018;-96
2023/04/03 08:17:31;;;;;;;;;;;;;;;;;;4886011;29;19986;-95
2023/04/03 08:19:57;;;;;;;;;;;;;;;;;;4885859;29;19929;-96
2023/04/03 08:25:11;;;;;;;;;;;;;;;;;;4901405;29;19934;-96
2023/04/03 08:30:32;;;;;;;;;;;;;;;;;;4902703;29;19986;-96
2023/04/03 08:33:20;;;;;;;;;;;;;;;;;;4908618;29;19927;-95
2023/04/03 08:35:46;;;;;;;;;;;;;;;;;;4904491;29;19990;-95
2023/04/03 08:41:11;;;;;;;;;;;;;;;;;;;;;
2023/04/03 08:44:06;;;;;;;;;;;;;;;;;;4919773;29;20009;-95
2023/04/03 08:46:26;;;;;;;;;;;;;;;;;;4916918;29;19974;-96
2023/04/03 08:49:03;;;;;;;;;;;;;;;;;;4907354;29;19923;-96
2023/04/03 08:51:51;;;;;;;;;;;;;;;;;;;;;
2023/04/03 08:54:41;;;;;;;;;;;;;;;;;;4923461;29;19926;-96
2023/04/03 08:57:12;;;;;;;;;;;;;;;;;;4921912;29;19948;-96
2023/04/03 08:59:44;;;;;;;;;;;;;;;;;;4907540;29;19927;-95
2023/04/03 09:02:13;;;;;;;;;;;;;;;;;;4907894;29;19923;-96
2023/04/03 09:04:39;;;;;;;;;;;;;;;;;;4908703;29;20013;-94
2023/04/03 09:13:21;;;;;;;;;;;;;;;;;;4944551;29;19963;-95
2023/04/03 09:18:35;;;;;;;;;;;;;;;;;;4926026;29;19927;-93
2023/04/03 09:24:03;;;;;;;;;;;;;;;;;;4920700;29;20437;-96
2023/04/03 09:58:36;;;;;;;;;;;;;;;;;;5807996;23;20382;-94
2023/04/03 10:01:02;;;;;;;;;;;;;;;;;;4906095;29;19929;-93
2023/04/03 10:03:28;;;;;;;;;;;;;;;;;;4906498;29;20326;-95
2023/04/03 10:05:55;;;;;;;;;;;;;;;;;;4912488;29;20385;-92
2023/04/03 10:08:28;;;;;;;;;;;;;;;;;;4888674;29;19989;-96
2023/04/03 10:10:54;;;;;;;;;;;;;;;;;;5206350;23;20390;-96
2023/04/03 10:22:01;;;;;;;;;;;;;;;;;;5151787;23;19927;-95
2023/04/03 10:27:02;;;;;;;;;;;;;;;;;;5841645;23;19927;-93
2023/04/03 10:29:28;;;;;;;;;;;;;;;;;;4905593;29;19933;-93
2023/04/03 10:32:15;;;;;;;;;;;;;;;;;;4920261;29;19923;-94
2023/04/03 10:34:45;;;;;;;;;;;;;;;;;;4920522;29;19929;-94
2023/04/03 10:37:15;;;;;;;;;;;;;;;;;;4902731;29;20303;-94
2023/04/03 10:39:41;;;;;;;;;;;;;;;;;;4886818;29;19923;-94
2023/04/03 10:42:06;;;;;;;;;;;;;;;;;;4887325;29;19927;-95
2023/04/03 10:44:33;;;;;;;;;;;;;;;;;;4886642;29;19923;-94
2023/04/03 10:46:59;;;;;;;;;;;;;;;;;;4886998;29;20021;-93
2023/04/03 10:49:27;;;;;;;;;;;;;;;;;;4902108;29;19934;-93
2023/04/03 10:51:53;;;;;;;;;;;;;;;;;;4886433;29;19924;-93
2023/04/03 10:54:19;;;;;;;;;;;;;;;;;;4901712;29;19924;-94
2023/04/03 10:56:45;;;;;;;;;;;;;;;;;;4886283;29;19934;-94
2023/04/03 10:59:11;;;;;;;;;;;;;;;;;;4886529;29;20351;-95
2023/04/03 11:01:37;;;;;;;;;;;;;;;;;;4886817;29;19975;-94
2023/04/03 11:04:03;;;;;;;;;;;;;;;;;;4887904;29;19924;-94
2023/04/03 11:06:29;;;;;;;;;;;;;;;;;;4885749;29;19927;-94
2023/04/03 11:08:56;;;;;;;;;;;;;;;;;;4885462;29;19923;-93
2023/04/03 11:11:22;;;;;;;;;;;;;;;;;;4886303;29;20410;-94
2023/04/03 11:13:48;;;;;;;;;;;;;;;;;;4886533;29;19923;-93
2023/04/03 11:16:14;;;;;;;;;;;;;;;;;;4886629;29;19923;-94
2023/04/03 11:18:40;;;;;;;;;;;;;;;;;;4886504;29;19926;-93
2023/04/03 11:21:09;;;;;;;;;;;;;;;;;;4901661;29;20379;-94
2023/04/03 11:23:35;;;;;;;;;;;;;;;;;;4902440;29;19923;-94
2023/04/03 11:26:01;;;;;;;;;;;;;;;;;;4903725;29;19931;-95
2023/04/03 11:28:27;;;;;;;;;;;;;;;;;;4905256;29;19930;-95
2023/04/03 11:30:53;;;;;;;;;;;;;;;;;;4908681;29;20011;-95
2023/04/03 11:33:19;;;;;;;;;;;;;;;;;;4907589;29;19978;-93
2023/04/03 11:35:46;;;;;;;;;;;;;;;;;;4907563;29;19923;-93
2023/04/03 11:38:12;;;;;;;;;;;;;;;;;;4908553;29;20379;-93
2023/04/03 11:40:40;;;;;;;;;;;;;;;;;;4907028;29;19974;-93
2023/04/03 11:43:10;;;;;;;;;;;;;;;;;;4921500;29;19929;-89
2023/04/03 11:45:36;;;;;;;;;;;;;;;;;;4904465;29;19927;-93
2023/04/03 11:48:03;;;;;;;;;;;;;;;;;;4907253;29;20371;-91
2023/04/03 11:50:29;;;;;;;;;;;;;;;;;;4908931;29;19923;-90
2023/04/03 11:52:55;;;;;;;;;;;;;;;;;;4906103;29;19922;-92
2023/04/03 11:55:21;;;;;;;;;;;;;;;;;;4906249;29;19934;-92
2023/04/03 11:57:47;;;;;;;;;;;;;;;;;;4922081;29;19923;-92
2023/04/03 12:00:17;;;;;;;;;;;;;;;;;;4905629;29;19930;-96
2023/04/03 12:02:44;;;;;;;;;;;;;;;;;;4919394;29;19922;-94
2023/04/03 12:05:10;;;;;;;;;;;;;;;;;;4904369;29;20320;-91
2023/04/03 12:07:36;;;;;;;;;;;;;;;;;;4904696;29;19923;-91
2023/04/03 12:10:02;;;;;;;;;;;;;;;;;;4905190;29;19922;-95
2023/04/03 12:12:28;;;;;;;;;;;;;;;;;;4904922;29;19978;-94
2023/04/03 12:15:03;;;;;;;;;;;;;;;;;;4904839;29;20392;-93
2023/04/03 12:17:30;;;;;;;;;;;;;;;;;;4904183;29;19922;-93
2023/04/03 12:19:56;;;;;;;;;;;;;;;;;;4904221;29;20001;-94
2023/04/03 12:22:23;;;;;;;;;;;;;;;;;;4906047;29;19927;-93
2023/04/03 12:24:49;;;;;;;;;;;;;;;;;;4907505;29;19922;-93
2023/04/03 12:27:15;;;;;;;;;;;;;;;;;;4907220;29;19982;-93
2023/04/03 12:29:42;;;;;;;;;;;;;;;;;;4906975;29;19922;-94
2023/04/03 12:32:08;;;;;;;;;;;;;;;;;;4908195;29;19923;-94
2023/04/03 12:34:34;;;;;;;;;;;;;;;;;;4907005;29;20252;-94
2023/04/03 12:37:00;;;;;;;;;;;;;;;;;;4908271;29;19929;-93
2023/04/03 12:39:26;;;;;;;;;;;;;;;;;;4908111;29;19923;-94
2023/04/03 12:41:52;;;;;;;;;;;;;;;;;;4907521;29;19930;-93
2023/04/03 12:44:18;;;;;;;;;;;;;;;;;;4907377;29;19923;-93
2023/04/03 12:46:44;;;;;;;;;;;;;;;;;;4907353;29;19927;-92
2023/04/03 12:49:10;;;;;;;;;;;;;;;;;;4907660;29;20278;-94
2023/04/03 12:51:36;;;;;;;;;;;;;;;;;;4907142;29;19927;-93
2023/04/03 12:54:02;;;;;;;;;;;;;;;;;;4907262;29;19923;-94
2023/04/03 12:56:29;;;;;;;;;;;;;;;;;;4908108;29;19988;-94
2023/04/03 12:58:58;;;;;;;;;;;;;;;;;;4923056;29;19923;-96
2023/04/03 13:01:27;;;;;;;;;;;;;;;;;;4908137;29;19926;-96
2023/04/03 13:03:56;;;;;;;;;;;;;;;;;;4907299;29;19929;-96
2023/04/03 13:06:22;;;;;;;;;;;;;;;;;;4907086;29;20286;-94
2023/04/03 13:09:06;;;;;;;;;;;;;;;;;;4908728;29;19922;-96
2023/04/03 13:11:32;;;;;;;;;;;;;;;;;;4909870;29;19923;-96
2023/04/03 13:25:18;;;;;;;;;;;;;;;;;;5418873;23;19927;-96
2023/04/03 13:27:44;;;;;;;;;;;;;;;;;;4888645;29;19938;-95
2023/04/03 13:30:10;;;;;;;;;;;;;;;;;;4888909;29;19931;-94
2023/04/03 13:32:45;;;;;;;;;;;;;;;;;;4918926;29;20009;-95
2023/04/03 13:50:46;;;;;;;;;;;;;;;;;;5274821;23;19950;-94
2023/04/03 13:53:12;;;;;;;;;;;;;;;;;;4906330;29;19922;-95
2023/04/03 13:55:38;;;;;;;;;;;;;;;;;;4899410;29;20343;-95
2023/04/03 13:58:06;;;;;;;;;;;;;;;;;;4886904;29;20059;-95
2023/04/03 14:00:47;;;;;;;;;;;;;;;;;;4888200;29;20035;-94
2023/04/03 14:03:13;;;;;;;;;;;;;;;;;;4887558;29;19923;-93
2023/04/03 14:05:39;;;;;;;;;;;;;;;;;;4886007;29;19934;-91
2023/04/03 14:08:07;;;;;;;;;;;;;;;;;;4885598;29;20409;-90
2023/04/03 14:10:33;;;;;;;;;;;;;;;;;;4885165;29;20041;-91
2023/04/03 14:13:00;;;;;;;;;;;;;;;;;;4886475;29;20100;-96
2023/04/03 14:15:29;;;;;;;;;;;;;;;;;;4903589;29;19930;-93
2023/04/03 14:18:01;;;;;;;;;;;;;;;;;;4902115;29;19923;-91
2023/04/03 14:20:27;;;;;;;;;;;;;;;;;;4885692;29;19926;-92
2023/04/03 14:22:53;;;;;;;;;;;;;;;;;;4885834;29;19923;-92
2023/04/03 14:25:38;;;;;;;;;;;;;;;;;;4904060;29;19946;-93
2023/04/03 14:28:05;;;;;;;;;;;;;;;;;;4885855;29;19930;-92
2023/04/03 14:33:40;;;;;;;;;;;;;;;;;;4861122;29;20019;-92
2023/04/03 14:36:07;;;;;;;;;;;;;;;;;;4896467;29;20010;-89
2023/04/03 14:38:33;;;;;;;;;;;;;;;;;;4885652;29;19923;-91
2023/04/03 14:40:59;;;;;;;;;;;;;;;;;;4885190;29;20390;-91
2023/04/03 14:43:26;;;;;;;;;;;;;;;;;;4885466;29;19923;-89
2023/04/03 14:45:52;;;;;;;;;;;;;;;;;;4884321;29;19969;-88
2023/04/03 14:48:18;;;;;;;;;;;;;;;;;;4884920;29;19927;-89
2023/04/03 14:50:44;;;;;;;;;;;;;;;;;;4912601;29;20465;-91
2023/04/03 14:53:10;;;;;;;;;;;;;;;;;;4917162;29;19978;-89
2023/04/03 14:55:36;;;;;;;;;;;;;;;;;;4904053;29;19973;-91
2023/04/03 14:58:02;;;;;;;;;;;;;;;;;;4903519;29;20014;-90
2023/04/03 15:00:28;;;;;;;;;;;;;;;;;;4903954;29;19933;-89
2023/04/03 15:02:54;;;;;;;;;;;;;;;;;;4919030;29;19922;-90
2023/04/03 15:05:20;;;;;;;;;;;;;;;;;;4902982;29;19931;-89
2023/04/03 15:07:49;;;;;;;;;;;;;;;;;;4903385;29;19923;-90
2023/04/03 15:10:15;;;;;;;;;;;;;;;;;;4903175;29;19930;-91
2023/04/03 15:12:44;;;;;;;;;;;;;;;;;;4903262;29;19922;-89
2023/04/03 15:15:10;;;;;;;;;;;;;;;;;;4903056;29;20026;-89
2023/04/03 15:17:36;;;;;;;;;;;;;;;;;;4918835;29;19974;-92
2023/04/03 15:20:02;;;;;;;;;;;;;;;;;;4903992;29;20010;-92
2023/04/03 15:22:28;;;;;;;;;;;;;;;;;;4903386;29;20343;-93
2023/04/03 15:24:57;;;;;;;;;;;;;;;;;;4903787;29;19923;-92
2023/04/03 15:27:23;;;;;;;;;;;;;;;;;;4903016;29;19933;-93
2023/04/03 15:29:49;;;;;;;;;;;;;;;;;;4921814;29;19923;-92
2023/04/03 15:32:28;;;;;;;;;;;;;;;;;;4904467;29;19923;-93
2023/04/03 15:34:57;;;;;;;;;;;;;;;;;;4905430;29;19929;-96
2023/04/03 15:37:23;;;;;;;;;;;;;;;;;;4906051;29;20017;-95
2023/04/03 15:39:49;;;;;;;;;;;;;;;;;;4905304;29;19922;-92
2023/04/03 15:42:15;;;;;;;;;;;;;;;;;;4903657;29;19923;-92
2023/04/03 15:44:41;;;;;;;;;;;;;;;;;;4903820;29;19926;-91
2023/04/03 15:47:06;;;;;;;;;;;;;;;;;;4903058;29;20102;-92
2023/04/03 15:49:34;;;;;;;;;;;;;;;;;;4903209;29;19927;-93
2023/04/03 15:52:00;;;;;;;;;;;;;;;;;;4904608;29;20099;-96
2023/04/03 15:54:26;;;;;;;;;;;;;;;;;;4904627;29;19991;-94
2023/04/03 15:56:52;;;;;;;;;;;;;;;;;;4904751;29;20022;-95
2023/04/03 15:59:18;;;;;;;;;;;;;;;;;;4907731;29;19923;-92
2023/04/03 16:01:44;;;;;;;;;;;;;;;;;;4908216;29;20342;-93
2023/04/03 16:04:10;;;;;;;;;;;;;;;;;;4907962;29;19922;-94
2023/04/03 16:06:36;;;;;;;;;;;;;;;;;;4907530;29;19942;-92
2023/04/03 16:09:02;;;;;;;;;;;;;;;;;;4906750;29;20429;-91
2023/04/03 16:11:28;;;;;;;;;;;;;;;;;;4907049;29;19982;-93
2023/04/03 16:13:54;;;;;;;;;;;;;;;;;;4907412;29;19923;-91
2023/04/03 16:16:23;;;;;;;;;;;;;;;;;;4908029;29;19930;-93
2023/04/03 16:18:49;;;;;;;;;;;;;;;;;;4907407;29;20295;-93
2023/04/03 16:21:15;;;;;;;;;;;;;;;;;;4907591;29;19967;-93
2023/04/03 16:23:41;;;;;;;;;;;;;;;;;;4907482;29;19923;-94
2023/04/03 16:26:07;;;;;;;;;;;;;;;;;;4907668;29;19930;-94
2023/04/03 16:28:33;;;;;;;;;;;;;;;;;;4907228;29;19979;-94
2023/04/03 16:30:59;;;;;;;;;;;;;;;;;;4907713;29;19923;-96
2023/04/03 16:33:25;;;;;;;;;;;;;;;;;;4909415;29;19930;-95
2023/04/03 16:36:03;;;;;;;;;;;;;;;;;;4905842;29;19974;-96
2023/04/03 16:38:46;;;;;;;;;;;;;;;;;;4922212;29;19927;-92
2023/04/03 16:41:18;;;;;;;;;;;;;;;;;;4906766;29;20026;-93
2023/04/03 16:43:53;;;;;;;;;;;;;;;;;;4923258;29;19978;-94
2023/04/03 16:46:38;;;;;;;;;;;;;;;;;;4922952;29;19934;-95
2023/04/03 16:49:05;;;;;;;;;;;;;;;;;;4922633;29;19989;-93
2023/04/03 16:51:31;;;;;;;;;;;;;;;;;;4907095;29;19935;-94
2023/04/03 16:53:57;;;;;;;;;;;;;;;;;;4906521;29;19923;-93
2023/04/03 16:56:23;;;;;;;;;;;;;;;;;;4906318;29;19930;-93
2023/04/03 16:58:49;;;;;;;;;;;;;;;;;;4906476;29;20371;-93
2023/04/03 17:01:16;;;;;;;;;;;;;;;;;;4922883;29;19923;-94
2023/04/03 17:03:42;;;;;;;;;;;;;;;;;;4906982;29;20247;-92
2023/04/03 17:06:08;;;;;;;;;;;;;;;;;;4906458;29;19931;-93
2023/04/03 17:08:34;;;;;;;;;;;;;;;;;;4906762;29;19930;-93
2023/04/03 17:11:01;;;;;;;;;;;;;;;;;;4906363;29;19923;-92
2023/04/03 17:13:31;;;;;;;;;;;;;;;;;;4909376;29;20017;-95
2023/04/03 17:15:58;;;;;;;;;;;;;;;;;;4906545;29;19923;-94
2023/04/03 17:18:24;;;;;;;;;;;;;;;;;;4906865;29;19923;-93
2023/04/03 17:20:59;;;;;;;;;;;;;;;;;;4906732;29;19977;-93
2023/04/03 17:23:40;;;;;;;;;;;;;;;;;;4920729;29;19929;-93
2023/04/03 17:26:11;;;;;;;;;;;;;;;;;;4905879;29;20022;-93
2023/04/03 17:28:40;;;;;;;;;;;;;;;;;;4922214;29;20013;-94
2023/04/03 17:31:06;;;;;;;;;;;;;;;;;;4906502;29;19974;-93
2023/04/03 17:33:32;;;;;;;;;;;;;;;;;;4906232;29;19922;-92
2023/04/03 17:35:58;;;;;;;;;;;;;;;;;;4906163;29;19926;-94
2023/04/03 17:38:24;;;;;;;;;;;;;;;;;;4906048;29;19923;-92
2023/04/03 17:40:52;;;;;;;;;;;;;;;;;;4906165;29;19933;-93
2023/04/03 17:43:18;;;;;;;;;;;;;;;;;;4906134;29;19930;-92
2023/04/03 17:45:44;;;;;;;;;;;;;;;;;;4904822;29;19927;-91
2023/04/03 17:48:10;;;;;;;;;;;;;;;;;;4905423;29;20015;-92
2023/04/03 17:50:36;;;;;;;;;;;;;;;;;;4902398;29;19938;-92
2023/04/03 17:53:02;;;;;;;;;;;;;;;;;;4902202;29;20032;-92
2023/04/03 17:55:51;;;;;;;;;;;;;;;;;;4923587;29;19927;-92
2023/04/03 17:58:20;;;;;;;;;;;;;;;;;;4921475;29;19970;-92
2023/04/03 18:00:49;;;;;;;;;;;;;;;;;;4905686;29;19923;-91
2023/04/03 18:03:21;;;;;;;;;;;;;;;;;;4905757;29;19929;-92
2023/04/03 18:05:49;;;;;;;;;;;;;;;;;;4905610;29;19927;-92
2023/04/03 18:08:16;;;;;;;;;;;;;;;;;;4905478;29;19930;-93
2023/04/03 18:10:44;;;;;;;;;;;;;;;;;;4921330;29;19923;-93
2023/04/03 18:13:10;;;;;;;;;;;;;;;;;;4905697;29;19934;-93
2023/04/03 18:15:42;;;;;;;;;;;;;;;;;;4905598;29;20271;-94
2023/04/03 18:18:08;;;;;;;;;;;;;;;;;;4906118;29;19923;-94
2023/04/03 18:20:35;;;;;;;;;;;;;;;;;;4904847;29;20370;-93
2023/04/03 18:23:01;;;;;;;;;;;;;;;;;;4905589;29;19964;-93
2023/04/03 18:25:27;;;;;;;;;;;;;;;;;;4905424;29;19942;-92
2023/04/03 18:27:58;;;;;;;;;;;;;;;;;;4906485;29;20398;-96
2023/04/03 18:30:25;;;;;;;;;;;;;;;;;;4906506;29;19923;-96
2023/04/03 18:32:51;;;;;;;;;;;;;;;;;;4906065;29;19927;-94